createdAt,value
2019-05-10T00:04:53.364Z,2.40
2019-05-10T00:09:56.713Z,2.90
2019-05-10T00:15:01.242Z,2.80
2019-05-10T00:20:07.183Z,2.97
2019-05-10T00:25:11.919Z,2.50
2019-05-10T00:30:16.172Z,2.60
2019-05-10T00:35:20.423Z,2.40
2019-05-10T00:40:25.034Z,2.40
2019-05-10T00:45:29.557Z,2.67
2019-05-10T00:50:34.142Z,2.40
2019-05-10T00:55:38.771Z,2.93
2019-05-10T01:00:42.731Z,2.53
2019-05-10T01:05:46.919Z,2.70
2019-05-10T01:10:51.202Z,2.50
2019-05-10T01:15:55.811Z,2.42
2019-05-10T01:20:59.997Z,2.60
2019-05-10T01:26:04.532Z,2.80
2019-05-10T01:31:08.841Z,2.57
2019-05-10T01:36:13.083Z,2.30
2019-05-10T01:41:17.226Z,2.50
2019-05-10T01:46:21.763Z,2.93
2019-05-10T01:51:28.013Z,2.60
2019-05-10T01:56:32.091Z,2.50
2019-05-10T02:01:36.227Z,2.87
2019-05-10T02:06:40.421Z,2.40
2019-05-10T02:11:44.937Z,2.30
2019-05-10T02:16:49.134Z,2.90
2019-05-10T02:21:53.327Z,2.60
2019-05-10T02:26:57.842Z,2.43
2019-05-10T02:32:01.835Z,2.60
2019-05-10T02:37:06.010Z,2.93
2019-05-10T02:42:09.963Z,2.90
2019-05-10T02:47:14.155Z,2.77
2019-05-10T02:52:18.153Z,2.70
2019-05-10T02:57:22.386Z,2.97
2019-05-10T03:02:28.061Z,2.90
2019-05-10T03:07:35.715Z,2.60
2019-05-10T03:12:41.557Z,2.93
2019-05-10T03:17:47.013Z,2.57
2019-05-10T03:22:51.061Z,2.50
2019-05-10T03:27:55.312Z,2.70
2019-05-10T03:32:59.545Z,3.00
2019-05-10T03:38:04.189Z,2.60
2019-05-10T03:43:08.447Z,2.70
2019-05-10T03:48:12.555Z,2.60
2019-05-10T03:53:16.759Z,2.80
2019-05-10T03:58:20.956Z,2.90
2019-05-10T04:03:25.104Z,2.77
2019-05-10T04:08:29.034Z,2.90
2019-05-10T04:13:32.915Z,3.03
2019-05-10T04:18:37.120Z,3.23
2019-05-10T04:23:41.180Z,3.03
2019-05-10T04:28:45.089Z,3.30
2019-05-10T04:33:49.323Z,3.00
2019-05-10T04:38:53.266Z,2.90
2019-05-10T04:43:57.485Z,2.93
2019-05-10T04:49:01.429Z,3.33
2019-05-10T04:54:05.298Z,3.00
2019-05-10T04:59:09.160Z,3.20
2019-05-10T05:04:13.023Z,2.93
2019-05-10T05:09:17.549Z,3.20
2019-05-10T05:14:21.789Z,3.20
2019-05-10T05:19:25.653Z,3.00
2019-05-10T05:24:29.759Z,3.03
2019-05-10T05:29:33.672Z,3.00
2019-05-10T05:34:38.244Z,2.80
2019-05-10T05:39:42.870Z,3.17
2019-05-10T05:44:46.818Z,3.00
2019-05-10T05:49:51.019Z,3.40
2019-05-10T05:54:57.457Z,3.83
2019-05-10T06:00:04.014Z,3.00
2019-05-10T06:05:06.691Z,3.30
2019-05-10T06:10:17.356Z,3.40
2019-05-10T06:15:16.115Z,3.03
2019-05-10T06:20:20.040Z,3.07
2019-05-10T06:25:37.633Z,3.10
2019-05-10T06:30:34.919Z,3.10
2019-05-10T06:35:40.095Z,3.20
2019-05-10T06:40:47.729Z,3.17
2019-05-10T06:45:52.521Z,3.10
2019-05-10T06:50:56.253Z,2.80
2019-05-10T06:56:00.513Z,3.05
2019-05-10T07:01:04.711Z,3.10
2019-05-10T07:06:08.653Z,3.03
2019-05-10T07:11:12.819Z,3.60
2019-05-10T07:16:23.960Z,3.50
2019-05-10T07:21:22.732Z,3.30
2019-05-10T07:26:26.971Z,3.47
2019-05-10T07:31:31.306Z,3.80
2019-05-10T07:36:36.247Z,4.13
2019-05-10T07:41:40.837Z,4.30
2019-05-10T07:46:47.070Z,3.90
2019-05-10T07:51:50.792Z,4.03
2019-05-10T07:56:54.695Z,4.40
2019-05-10T08:02:05.976Z,4.53
2019-05-10T08:07:09.797Z,4.90
2019-05-10T08:12:12.974Z,4.57
2019-05-10T08:17:19.202Z,3.90
2019-05-10T08:22:23.297Z,4.33
2019-05-10T08:27:27.477Z,4.10
2019-05-10T08:32:35.161Z,4.17
2019-05-10T08:37:39.831Z,3.63
2019-05-10T08:42:48.715Z,4.30
2019-05-10T08:47:52.623Z,4.07
2019-05-10T08:52:56.880Z,3.50
2019-05-10T08:58:02.932Z,3.17
2019-05-10T09:03:09.870Z,4.50
2019-05-10T09:08:19.677Z,3.93
2019-05-10T09:13:19.175Z,4.10
2019-05-10T09:18:23.715Z,3.93
2019-05-10T09:23:28.004Z,3.57
2019-05-10T09:28:32.305Z,4.07
2019-05-10T09:33:42.319Z,4.30
2019-05-10T09:38:44.161Z,3.90
2019-05-10T09:43:48.966Z,3.83
2019-05-10T09:49:03.973Z,4.10
2019-05-10T09:54:00.527Z,3.90
2019-05-10T09:59:04.588Z,4.17
2019-05-10T10:04:08.764Z,3.57
2019-05-10T10:09:12.630Z,3.50
2019-05-10T10:14:17.937Z,3.77
2019-05-10T10:19:24.448Z,4.10
2019-05-10T10:24:28.569Z,4.00
2019-05-10T10:29:34.185Z,4.30
2019-05-10T10:34:42.858Z,3.97
2019-05-10T10:39:44.315Z,4.80
2019-05-10T10:44:48.725Z,4.70
2019-05-10T10:49:52.663Z,4.57
2019-05-10T10:54:57.717Z,3.83
2019-05-10T11:00:01.823Z,4.60
2019-05-10T11:05:05.884Z,4.53
2019-05-10T11:10:16.155Z,5.10
2019-05-10T11:15:22.027Z,5.37
2019-05-10T11:20:23.370Z,6.60
2019-05-10T11:25:27.615Z,6.60
2019-05-10T11:30:32.515Z,6.40
2019-05-10T11:35:36.739Z,6.53
2019-05-10T11:40:41.960Z,7.10
2019-05-10T11:45:46.204Z,5.90
2019-05-10T11:50:51.369Z,5.53
2019-05-10T11:55:55.896Z,4.80
2019-05-10T12:01:08.808Z,4.57
2019-05-10T12:06:08.975Z,5.60
2019-05-10T12:11:27.703Z,6.30
2019-05-10T12:16:17.916Z,6.87
2019-05-10T12:21:21.936Z,7.27
2019-05-10T12:31:31.935Z,6.43
2019-05-10T12:36:35.900Z,6.77
2019-05-10T12:41:47.739Z,6.37
2019-05-10T12:46:46.496Z,5.63
2019-05-10T12:51:51.393Z,5.97
2019-05-10T12:56:55.361Z,5.40
2019-05-10T13:02:04.572Z,5.27
2019-05-10T13:07:05.448Z,4.90
2019-05-10T13:12:10.124Z,4.67
2019-05-10T13:17:17.085Z,4.90
2019-05-10T13:22:20.150Z,4.90
2019-05-10T13:27:24.639Z,4.47
2019-05-10T13:32:29.288Z,5.43
2019-05-10T13:37:33.832Z,4.73
2019-05-10T13:42:43.319Z,5.43
2019-05-10T13:47:44.655Z,5.23
2019-05-10T13:52:48.926Z,4.63
2019-05-10T13:57:54.231Z,5.83
2019-05-10T14:02:58.706Z,4.63
2019-05-10T14:08:02.931Z,4.10
2019-05-10T14:13:20.561Z,3.90
2019-05-10T14:18:27.644Z,4.17
2019-05-10T14:23:35.192Z,4.47
2019-05-10T14:28:37.578Z,5.07
2019-05-10T14:33:49.587Z,5.60
2019-05-10T14:38:53.916Z,5.13
2019-05-10T14:43:54.275Z,4.30
2019-05-10T14:49:08.793Z,4.53
2019-05-10T14:54:08.943Z,5.50
2019-05-10T14:59:10.285Z,5.13
2019-05-10T15:04:20.287Z,4.87
2019-05-10T15:09:23.968Z,4.20
2019-05-10T15:14:25.654Z,3.80
2019-05-10T15:19:31.439Z,3.60
2019-05-10T15:24:35.943Z,3.50
2019-05-10T15:29:39.915Z,3.80
2019-05-10T15:35:03.855Z,4.40
2019-05-10T15:39:49.621Z,4.70
2019-05-10T15:44:53.812Z,4.30
2019-05-10T15:49:59.985Z,4.20
2019-05-10T15:55:10.552Z,4.30
2019-05-10T16:00:15.003Z,3.50
2019-05-10T16:05:29.258Z,3.10
2019-05-10T16:10:28.350Z,3.03
2019-05-10T16:15:30.619Z,3.67
2019-05-10T16:20:37.227Z,3.37
2019-05-10T16:25:47.572Z,3.40
2019-05-10T16:30:47.331Z,3.13
2019-05-10T16:35:52.113Z,3.10
2019-05-10T16:40:59.403Z,3.13
2019-05-10T16:46:02.462Z,3.20
2019-05-10T16:51:09.842Z,3.20
2019-05-10T16:56:13.453Z,3.27
2019-05-10T17:01:18.805Z,2.80
2019-05-10T17:06:24.198Z,2.77
2019-05-10T17:11:28.756Z,3.30
2019-05-10T17:16:33.000Z,3.30
2019-05-10T17:21:38.139Z,2.77
2019-05-10T17:26:42.098Z,2.73
2019-05-10T17:31:47.756Z,2.90
2019-05-10T17:36:57.429Z,3.07
2019-05-10T17:41:57.552Z,3.00
2019-05-10T17:47:02.878Z,4.47
2019-05-10T17:52:08.274Z,3.70
2019-05-10T17:57:16.495Z,3.70
2019-05-10T18:02:17.987Z,4.47
2019-05-10T18:07:21.853Z,4.47
2019-05-10T18:12:27.212Z,3.40
2019-05-10T18:17:32.126Z,3.90
2019-05-10T18:22:42.799Z,4.03
2019-05-10T18:27:41.932Z,3.60
2019-05-10T18:32:46.063Z,3.30
2019-05-10T18:37:53.668Z,3.30
2019-05-10T18:42:57.869Z,3.53
2019-05-10T18:48:01.700Z,3.10
2019-05-10T18:53:06.659Z,2.83
2019-05-10T18:58:10.610Z,2.67
2019-05-10T19:03:15.157Z,2.77
2019-05-10T19:08:19.679Z,3.10
2019-05-10T19:13:24.063Z,3.23
2019-05-10T19:18:28.517Z,2.90
2019-05-10T19:23:33.123Z,3.10
2019-05-10T19:28:37.137Z,2.83
2019-05-10T19:33:41.327Z,2.80
2019-05-10T19:38:45.522Z,2.60
2019-05-10T19:43:50.222Z,2.80
2019-05-10T19:48:55.248Z,2.90
2019-05-10T19:53:59.493Z,2.83
2019-05-10T19:59:05.608Z,2.97
2019-05-10T20:04:09.780Z,2.90
2019-05-10T20:09:14.063Z,2.57
2019-05-10T20:14:18.010Z,2.87
2019-05-10T20:19:22.209Z,3.10
2019-05-10T20:24:26.423Z,3.00
2019-05-10T20:29:30.285Z,2.80
2019-05-10T20:34:34.488Z,2.93
2019-05-10T20:39:38.681Z,3.07
2019-05-10T20:44:42.941Z,3.33
2019-05-10T20:49:47.075Z,3.30
2019-05-10T20:54:51.276Z,3.10
2019-05-10T20:59:55.235Z,3.50
2019-05-10T21:04:59.985Z,3.50
2019-05-10T21:10:05.438Z,3.60
2019-05-10T21:15:09.799Z,3.40
2019-05-10T21:20:13.659Z,3.53
2019-05-10T21:25:17.928Z,4.70
2019-05-10T21:30:21.900Z,4.30
2019-05-10T21:35:26.419Z,4.80
2019-05-10T21:40:30.964Z,4.77
2019-05-10T21:45:34.928Z,4.70
2019-05-10T21:50:39.375Z,4.30
2019-05-10T21:55:43.563Z,4.50
2019-05-10T22:00:51.014Z,4.40
2019-05-10T22:05:57.192Z,5.23
2019-05-10T22:11:01.548Z,5.03
2019-05-10T22:16:06.076Z,5.20
2019-05-10T22:21:11.439Z,4.50
2019-05-10T22:26:15.391Z,4.23
2019-05-10T22:31:19.575Z,4.50
2019-05-10T22:36:24.157Z,4.13
2019-05-10T22:41:28.797Z,4.23
2019-05-10T22:46:33.071Z,4.23
2019-05-10T22:51:37.356Z,4.50
2019-05-10T22:56:41.633Z,4.57
2019-05-10T23:01:45.925Z,4.40
2019-05-10T23:06:49.865Z,4.57
2019-05-10T23:11:54.055Z,4.67
2019-05-10T23:16:58.584Z,4.63
2019-05-10T23:22:02.547Z,4.60
2019-05-10T23:27:06.914Z,4.93
2019-05-10T23:32:11.170Z,4.80
2019-05-10T23:37:15.451Z,5.03
2019-05-10T23:42:19.756Z,5.50
2019-05-10T23:47:23.980Z,5.70
2019-05-10T23:52:28.507Z,6.50
2019-05-10T23:57:32.465Z,7.00
